Date , GPU Core Clock [MHz] , GPU Memory Clock [MHz] , GPU Shader Clock [MHz] , GPU Temperature [°C] , Fan Speed (%) [%] , Fan Speed (RPM) [RPM] , Memory Used [MB] , GPU Load [%] , Memory Controller Load [%] , Video Engine Load [%] , VDDC [V] ,
2012-04-01 11:56:32 , 405.0 , 900.0 , 810.0 , 53.0 , 40 , 1620 , 166 , 0 , 0 , 0 , 0.9870 ,
2012-04-01 11:56:33 , 405.0 , 900.0 , 810.0 , 53.0 , 40 , 1590 , 166 , 0 , 0 , 0 , 0.9870 ,
2012-04-01 11:56:34 , 405.0 , 900.0 , 810.0 , 53.0 , 40 , 1620 , 166 , 0 , 0 , 0 , 0.9870 ,
2012-04-01 11:56:35 , 405.0 , 900.0 , 810.0 , 53.0 , 40 , 1590 , 166 , 0 , 0 , 0 , 0.9870 ,
2012-04-01 11:56:36 , 405.0 , 900.0 , 810.0 , 53.0 , 40 , 1620 , 166 , 0 , 0 , 0 , 0.9870 ,
2012-04-01 11:56:37 , 405.0 , 900.0 , 810.0 , 53.0 , 40 , 1590 , 166 , 0 , 0 , 0 , 0.9870 ,
2012-04-01 11:56:38 , 405.0 , 900.0 , 810.0 , 53.0 , 40 , 1620 , 166 , 0 , 0 , 0 , 0.9870 ,
2012-04-01 11:56:39 , 405.0 , 900.0 , 810.0 , 53.0 , 40 , 1590 , 166 , 0 , 0 , 0 , 0.9870 ,
2012-04-01 11:56:40 , 405.0 , 900.0 , 810.0 , 53.0 , 40 , 1620 , 166 , 38 , 10 , 0 , 0.9870 ,
2012-04-01 11:56:41 , 405.0 , 900.0 , 810.0 , 53.0 , 40 , 1590 , 166 , 0 , 0 , 0 , 0.9870 ,
2012-04-01 11:56:42 , 405.0 , 900.0 , 810.0 , 53.0 , 40 , 1590 , 166 , 0 , 0 , 0 , 0.9870 ,
2012-04-01 11:56:44 , 405.0 , 900.0 , 810.0 , 53.0 , 40 , 1620 , 166 , 0 , 0 , 0 , 0.9870 ,
2012-04-01 11:56:45 , 405.0 , 900.0 , 810.0 , 53.0 , 40 , 1590 , 166 , 0 , 0 , 0 , 0.9870 ,
2012-04-01 11:56:46 , 405.0 , 900.0 , 810.0 , 53.0 , 40 , 1620 , 166 , 0 , 0 , 0 , 0.9870 ,
2012-04-01 11:56:47 , 405.0 , 900.0 , 810.0 , 53.0 , 40 , 1590 , 166 , 0 , 0 , 0 , 0.9870 ,
2012-04-01 11:56:48 , 405.0 , 900.0 , 810.0 , 53.0 , 40 , 1620 , 166 , 0 , 0 , 0 , 0.9870 ,
2012-04-01 11:56:49 , 405.0 , 900.0 , 810.0 , 53.0 , 40 , 1590 , 166 , 0 , 0 , 0 , 0.9870 ,
2012-04-01 11:56:50 , 405.0 , 900.0 , 810.0 , 53.0 , 40 , 1620 , 166 , 0 , 0 , 0 , 0.9870 ,
2012-04-01 11:56:51 , 405.0 , 900.0 , 810.0 , 53.0 , 40 , 1590 , 166 , 0 , 0 , 0 , 0.9870 ,
2012-04-01 11:56:52 , 789.8 , 925.0 , 1580.0 , 53.0 , 40 , 1620 , 166 , 0 , 0 , 0 , 0.9870 ,
2012-04-01 11:56:53 , 789.8 , 925.0 , 1580.0 , 53.0 , 40 , 1590 , 166 , 0 , 0 , 0 , 0.9870 ,
2012-04-01 11:56:54 , 789.8 , 925.0 , 1580.0 , 53.0 , 40 , 1620 , 166 , 0 , 0 , 0 , 0.9870 ,
2012-04-01 11:56:55 , 789.8 , 925.0 , 1580.0 , 53.0 , 100 , 1590 , 166 , 0 , 0 , 0 , 0.9870 ,
2012-04-01 11:56:56 , 789.8 , 925.0 , 1580.0 , 53.0 , 100 , 2550 , 166 , 0 , 0 , 0 , 0.9870 ,
2012-04-01 11:56:57 , 789.8 , 925.0 , 1580.0 , 53.0 , 100 , 3600 , 166 , 0 , 0 , 0 , 0.9870 ,
2012-04-01 11:56:58 , 789.8 , 925.0 , 1580.0 , 52.0 , 100 , 3660 , 166 , 0 , 0 , 0 , 0.9870 ,
2012-04-01 11:56:59 , 405.0 , 925.0 , 810.0 , 52.0 , 100 , 3690 , 166 , 0 , 0 , 0 , 0.9870 ,
2012-04-01 11:57:00 , 405.0 , 925.0 , 810.0 , 51.0 , 100 , 3660 , 166 , 0 , 0 , 0 , 0.9870 ,
2012-04-01 11:57:01 , 405.0 , 925.0 , 810.0 , 51.0 , 100 , 3660 , 166 , 0 , 0 , 0 , 0.9870 ,
2012-04-01 11:57:02 , 405.0 , 925.0 , 810.0 , 50.0 , 100 , 3660 , 166 , 0 , 0 , 0 , 0.9870 ,
2012-04-01 11:57:03 , 405.0 , 925.0 , 810.0 , 50.0 , 100 , 3690 , 166 , 0 , 0 , 0 , 0.9870 ,
2012-04-01 11:57:04 , 405.0 , 925.0 , 810.0 , 49.0 , 100 , 3660 , 166 , 0 , 0 , 0 , 0.9870 ,
2012-04-01 11:57:05 , 405.0 , 925.0 , 810.0 , 49.0 , 100 , 3660 , 166 , 0 , 0 , 0 , 0.9870 ,
2012-04-01 11:57:06 , 405.0 , 925.0 , 810.0 , 49.0 , 100 , 3660 , 166 , 0 , 0 , 0 , 0.9870 ,
2012-04-01 11:57:07 , 405.0 , 925.0 , 810.0 , 48.0 , 100 , 3660 , 166 , 0 , 0 , 0 , 0.9870 ,
2012-04-01 11:57:08 , 405.0 , 925.0 , 810.0 , 48.0 , 100 , 3660 , 166 , 0 , 0 , 0 , 0.9870 ,
2012-04-01 11:57:09 , 405.0 , 925.0 , 810.0 , 48.0 , 100 , 3660 , 166 , 0 , 0 , 0 , 0.9870 ,
2012-04-01 11:57:10 , 405.0 , 925.0 , 810.0 , 48.0 , 100 , 3660 , 166 , 0 , 0 , 0 , 0.9870 ,
2012-04-01 11:57:11 , 405.0 , 925.0 , 810.0 , 47.0 , 100 , 3660 , 166 , 0 , 0 , 0 , 0.9870 ,
2012-04-01 11:57:12 , 405.0 , 925.0 , 810.0 , 47.0 , 100 , 3660 , 166 , 0 , 0 , 0 , 0.9870 ,
2012-04-01 11:57:13 , 405.0 , 925.0 , 810.0 , 46.0 , 100 , 3660 , 166 , 0 , 0 , 0 , 0.9870 ,
2012-04-01 11:57:14 , 405.0 , 925.0 , 810.0 , 46.0 , 100 , 3660 , 166 , 0 , 0 , 0 , 0.9870 ,
2012-04-01 11:57:15 , 405.0 , 925.0 , 810.0 , 46.0 , 100 , 3660 , 166 , 0 , 0 , 0 , 0.9870 ,
2012-04-01 11:57:16 , 405.0 , 925.0 , 810.0 , 46.0 , 100 , 3630 , 166 , 0 , 0 , 0 , 0.9870 ,
2012-04-01 11:57:17 , 405.0 , 925.0 , 810.0 , 45.0 , 100 , 3660 , 167 , 1 , 1 , 0 , 0.9870 ,
2012-04-01 11:57:18 , 405.0 , 925.0 , 810.0 , 45.0 , 100 , 3630 , 167 , 0 , 0 , 0 , 0.9870 ,
2012-04-01 11:57:19 , 405.0 , 925.0 , 810.0 , 45.0 , 100 , 3660 , 167 , 0 , 0 , 0 , 0.9870 ,
2012-04-01 11:57:20 , 789.8 , 925.0 , 1580.0 , 45.0 , 100 , 3630 , 196 , 0 , 1 , 0 , 0.9870 ,
2012-04-01 11:57:21 , 789.8 , 925.0 , 1580.0 , 45.0 , 100 , 3600 , 332 , 5 , 1 , 0 , 0.9870 ,
2012-04-01 11:57:22 , 789.8 , 925.0 , 1580.0 , 45.0 , 100 , 3630 , 346 , 1 , 1 , 0 , 0.9870 ,
2012-04-01 11:57:23 , 789.8 , 925.0 , 1580.0 , 46.0 , 100 , 3630 , 377 , 1 , 0 , 0 , 0.9870 ,
2012-04-01 11:57:24 , 789.8 , 925.0 , 1580.0 , 46.0 , 100 , 3630 , 379 , 32 , 11 , 0 , 0.9870 ,
2012-04-01 11:57:25 , 789.8 , 925.0 , 1580.0 , 46.0 , 100 , 3630 , 381 , 32 , 11 , 0 , 0.9870 ,
2012-04-01 11:57:26 , 789.8 , 925.0 , 1580.0 , 45.0 , 100 , 3600 , 382 , 32 , 11 , 0 , 0.9870 ,
2012-04-01 11:57:27 , 789.8 , 925.0 , 1580.0 , 46.0 , 100 , 3630 , 382 , 32 , 11 , 0 , 0.9870 ,
2012-04-01 11:57:28 , 789.8 , 925.0 , 1580.0 , 46.0 , 100 , 3630 , 382 , 32 , 11 , 0 , 0.9870 ,
2012-04-01 11:57:29 , 789.8 , 925.0 , 1580.0 , 46.0 , 100 , 3630 , 382 , 32 , 11 , 0 , 0.9870 ,
2012-04-01 11:57:30 , 789.8 , 925.0 , 1580.0 , 46.0 , 100 , 3600 , 378 , 32 , 11 , 0 , 0.9870 ,
2012-04-01 11:57:31 , 405.0 , 925.0 , 810.0 , 45.0 , 100 , 3630 , 337 , 62 , 11 , 0 , 0.9870 ,
2012-04-01 11:57:32 , 405.0 , 925.0 , 810.0 , 45.0 , 100 , 3630 , 337 , 63 , 11 , 0 , 0.9870 ,
2012-04-01 11:57:33 , 405.0 , 925.0 , 810.0 , 45.0 , 100 , 3630 , 337 , 62 , 11 , 0 , 0.9870 ,
2012-04-01 11:57:34 , 405.0 , 925.0 , 810.0 , 45.0 , 100 , 3600 , 337 , 62 , 11 , 0 , 0.9870 ,
2012-04-01 11:57:35 , 405.0 , 925.0 , 810.0 , 45.0 , 100 , 3630 , 337 , 61 , 12 , 0 , 0.9870 ,
2012-04-01 11:57:36 , 405.0 , 925.0 , 810.0 , 45.0 , 100 , 3630 , 337 , 62 , 12 , 0 , 0.9870 ,
2012-04-01 11:57:37 , 405.0 , 925.0 , 810.0 , 45.0 , 100 , 3600 , 337 , 61 , 12 , 0 , 0.9870 ,
2012-04-01 11:57:38 , 405.0 , 925.0 , 810.0 , 45.0 , 100 , 3630 , 337 , 61 , 12 , 0 , 0.9870 ,
2012-04-01 11:57:39 , 405.0 , 925.0 , 810.0 , 45.0 , 100 , 3630 , 337 , 61 , 12 , 0 , 0.9870 ,
2012-04-01 11:57:40 , 405.0 , 925.0 , 810.0 , 45.0 , 100 , 3600 , 337 , 61 , 11 , 0 , 0.9870 ,
2012-04-01 11:57:41 , 405.0 , 925.0 , 810.0 , 45.0 , 100 , 3630 , 337 , 62 , 11 , 0 , 0.9870 ,
2012-04-01 11:57:42 , 405.0 , 925.0 , 810.0 , 45.0 , 100 , 3630 , 337 , 61 , 11 , 0 , 0.9870 ,
2012-04-01 11:57:43 , 405.0 , 925.0 , 810.0 , 45.0 , 100 , 3600 , 337 , 61 , 11 , 0 , 0.9870 ,
2012-04-01 11:57:44 , 405.0 , 925.0 , 810.0 , 44.0 , 100 , 3630 , 344 , 2 , 1 , 0 , 0.9870 ,
2012-04-01 11:57:45 , 405.0 , 925.0 , 810.0 , 45.0 , 100 , 3630 , 374 , 83 , 17 , 0 , 0.9870 ,
2012-04-01 11:57:46 , 405.0 , 925.0 , 810.0 , 45.0 , 100 , 3600 , 374 , 81 , 17 , 0 , 0.9870 ,
2012-04-01 11:57:47 , 405.0 , 925.0 , 810.0 , 45.0 , 100 , 3600 , 377 , 81 , 17 , 0 , 0.9870 ,
2012-04-01 11:57:48 , 405.0 , 925.0 , 810.0 , 45.0 , 100 , 3600 , 379 , 81 , 17 , 0 , 0.9870 ,
2012-04-01 11:57:49 , 405.0 , 925.0 , 810.0 , 45.0 , 100 , 3600 , 382 , 82 , 17 , 0 , 0.9870 ,
2012-04-01 11:57:50 , 405.0 , 925.0 , 810.0 , 45.0 , 100 , 3600 , 385 , 81 , 17 , 0 , 0.9870 ,
2012-04-01 11:57:51 , 405.0 , 925.0 , 810.0 , 45.0 , 100 , 3630 , 386 , 81 , 17 , 0 , 0.9870 ,
2012-04-01 11:57:52 , 405.0 , 925.0 , 810.0 , 45.0 , 100 , 3600 , 388 , 81 , 17 , 0 , 0.9870 ,
2012-04-01 11:57:53 , 405.0 , 925.0 , 810.0 , 45.0 , 100 , 3600 , 393 , 81 , 17 , 0 , 0.9870 ,
2012-04-01 11:57:54 , 405.0 , 925.0 , 810.0 , 45.0 , 100 , 3600 , 386 , 81 , 17 , 0 , 0.9870 ,
2012-04-01 11:57:56 , 405.0 , 925.0 , 810.0 , 45.0 , 100 , 3600 , 390 , 81 , 16 , 0 , 0.9870 ,
2012-04-01 11:57:57 , 405.0 , 925.0 , 810.0 , 45.0 , 100 , 3600 , 394 , 81 , 16 , 0 , 0.9870 ,
2012-04-01 11:57:58 , 405.0 , 925.0 , 810.0 , 45.0 , 100 , 3600 , 398 , 81 , 17 , 0 , 0.9870 ,
2012-04-01 11:57:59 , 405.0 , 925.0 , 810.0 , 45.0 , 100 , 3600 , 404 , 70 , 14 , 0 , 0.9870 ,
2012-04-01 11:58:00 , 405.0 , 925.0 , 810.0 , 45.0 , 100 , 3630 , 406 , 65 , 13 , 0 , 0.9870 ,
2012-04-01 11:58:01 , 405.0 , 925.0 , 810.0 , 45.0 , 100 , 3600 , 409 , 66 , 13 , 0 , 0.9870 ,
2012-04-01 11:58:02 , 789.8 , 925.0 , 1580.0 , 45.0 , 100 , 3600 , 411 , 88 , 39 , 0 , 0.9870 ,
2012-04-01 11:58:03 , 789.8 , 925.0 , 1580.0 , 45.0 , 100 , 3600 , 413 , 46 , 19 , 0 , 0.9870 ,
2012-04-01 11:58:04 , 789.8 , 925.0 , 1580.0 , 45.0 , 100 , 3600 , 420 , 35 , 12 , 0 , 0.9870 ,
2012-04-01 11:58:05 , 789.8 , 925.0 , 1580.0 , 44.0 , 100 , 3630 , 420 , 1 , 1 , 0 , 0.9870 ,
2012-04-01 11:58:06 , 789.8 , 925.0 , 1580.0 , 44.0 , 100 , 3600 , 420 , 0 , 0 , 0 , 0.9870 ,
2012-04-01 11:58:07 , 789.8 , 925.0 , 1580.0 , 43.0 , 100 , 3630 , 420 , 0 , 0 , 0 , 0.9870 ,
2012-04-01 11:58:08 , 789.8 , 925.0 , 1580.0 , 44.0 , 100 , 3630 , 420 , 0 , 0 , 0 , 0.9870 ,
2012-04-01 11:58:09 , 789.8 , 925.0 , 1580.0 , 44.0 , 100 , 3630 , 422 , 19 , 8 , 0 , 0.9870 ,
2012-04-01 11:58:10 , 789.8 , 925.0 , 1580.0 , 43.0 , 100 , 3630 , 424 , 17 , 7 , 0 , 0.9870 ,
2012-04-01 11:58:11 , 789.8 , 925.0 , 1580.0 , 44.0 , 100 , 3600 , 426 , 23 , 10 , 0 , 0.9870 ,
2012-04-01 11:58:12 , 789.8 , 925.0 , 1580.0 , 44.0 , 100 , 3630 , 426 , 23 , 10 , 0 , 0.9870 ,
2012-04-01 11:58:13 , 789.8 , 925.0 , 1580.0 , 44.0 , 100 , 3630 , 429 , 13 , 6 , 0 , 0.9870 ,
2012-04-01 11:58:14 , 789.8 , 925.0 , 1580.0 , 44.0 , 100 , 3600 , 427 , 23 , 10 , 0 , 0.9870 ,
2012-04-01 11:58:15 , 789.8 , 925.0 , 1580.0 , 44.0 , 100 , 3630 , 429 , 13 , 6 , 0 , 0.9870 ,
2012-04-01 11:58:16 , 789.8 , 925.0 , 1580.0 , 44.0 , 100 , 3600 , 430 , 21 , 9 , 0 , 0.9870 ,
2012-04-01 11:58:17 , 789.8 , 925.0 , 1580.0 , 43.0 , 100 , 3630 , 433 , 20 , 9 , 0 , 0.9870 ,
2012-04-01 11:58:18 , 789.8 , 925.0 , 1580.0 , 43.0 , 100 , 3600 , 436 , 14 , 6 , 0 , 0.9870 ,
2012-04-01 11:58:19 , 789.8 , 925.0 , 1580.0 , 43.0 , 100 , 3630 , 446 , 0 , 0 , 0 , 0.9870 ,
2012-04-01 11:58:20 , 405.0 , 925.0 , 810.0 , 42.0 , 100 , 3600 , 448 , 1 , 1 , 0 , 0.9870 ,
2012-04-01 11:58:21 , 789.8 , 925.0 , 1580.0 , 45.0 , 100 , 3630 , 470 , 8 , 3 , 0 , 0.9870 ,
2012-04-01 11:58:22 , 789.8 , 925.0 , 1580.0 , 47.0 , 100 , 3540 , 451 , 75 , 23 , 0 , 0.9870 ,
2012-04-01 11:58:23 , 789.8 , 925.0 , 1580.0 , 47.0 , 100 , 3540 , 488 , 86 , 25 , 0 , 0.9870 ,
2012-04-01 11:58:24 , 789.8 , 925.0 , 1580.0 , 47.0 , 100 , 3540 , 543 , 86 , 23 , 0 , 0.9870 ,
2012-04-01 11:58:25 , 789.8 , 925.0 , 1580.0 , 48.0 , 100 , 3540 , 544 , 88 , 25 , 0 , 0.9870 ,
2012-04-01 11:58:26 , 789.8 , 925.0 , 1580.0 , 49.0 , 100 , 3540 , 545 , 91 , 24 , 0 , 0.9870 ,
2012-04-01 11:58:27 , 789.8 , 925.0 , 1580.0 , 49.0 , 100 , 3570 , 546 , 86 , 22 , 0 , 0.9870 ,
2012-04-01 11:58:28 , 789.8 , 925.0 , 1580.0 , 49.0 , 100 , 3540 , 546 , 80 , 21 , 0 , 0.9870 ,
2012-04-01 11:58:29 , 789.8 , 925.0 , 1580.0 , 49.0 , 100 , 3540 , 545 , 89 , 22 , 0 , 0.9870 ,
2012-04-01 11:58:30 , 789.8 , 925.0 , 1580.0 , 49.0 , 100 , 3540 , 542 , 85 , 22 , 0 , 0.9870 ,
2012-04-01 11:58:31 , 789.8 , 925.0 , 1580.0 , 50.0 , 100 , 3540 , 540 , 85 , 22 , 0 , 0.9870 ,
2012-04-01 11:58:32 , 789.8 , 925.0 , 1580.0 , 51.0 , 100 , 3540 , 538 , 95 , 26 , 0 , 0.9870 ,
2012-04-01 11:58:33 , 789.8 , 925.0 , 1580.0 , 51.0 , 100 , 3540 , 537 , 99 , 29 , 0 , 0.9870 ,
2012-04-01 11:58:34 , 789.8 , 925.0 , 1580.0 , 51.0 , 100 , 3540 , 537 , 99 , 29 , 0 , 0.9870 ,
2012-04-01 11:58:35 , 789.8 , 925.0 , 1580.0 , 52.0 , 100 , 3510 , 538 , 99 , 29 , 0 , 0.9870 ,
2012-04-01 11:58:36 , 789.8 , 925.0 , 1580.0 , 52.0 , 100 , 3540 , 537 , 99 , 31 , 0 , 0.9870 ,
2012-04-01 11:58:37 , 789.8 , 925.0 , 1580.0 , 52.0 , 100 , 3540 , 538 , 99 , 31 , 0 , 0.9870 ,
2012-04-01 11:58:38 , 789.8 , 925.0 , 1580.0 , 52.0 , 100 , 3510 , 539 , 99 , 31 , 0 , 0.9870 ,
2012-04-01 11:58:39 , 789.8 , 925.0 , 1580.0 , 52.0 , 100 , 3540 , 539 , 96 , 27 , 0 , 0.9870 ,
2012-04-01 11:58:40 , 789.8 , 925.0 , 1580.0 , 52.0 , 100 , 3540 , 540 , 85 , 21 , 0 , 0.9870 ,
2012-04-01 11:58:41 , 789.8 , 925.0 , 1580.0 , 53.0 , 100 , 3540 , 541 , 96 , 23 , 0 , 0.9870 ,
2012-04-01 11:58:42 , 789.8 , 925.0 , 1580.0 , 53.0 , 100 , 3510 , 542 , 99 , 27 , 0 , 0.9870 ,
2012-04-01 11:58:43 , 789.8 , 925.0 , 1580.0 , 54.0 , 100 , 3540 , 542 , 99 , 24 , 0 , 0.9870 ,
2012-04-01 11:58:44 , 789.8 , 925.0 , 1580.0 , 53.0 , 100 , 3540 , 542 , 82 , 20 , 0 , 0.9870 ,
2012-04-01 11:58:45 , 789.8 , 925.0 , 1580.0 , 54.0 , 100 , 3540 , 542 , 99 , 24 , 0 , 0.9870 ,
2012-04-01 11:58:46 , 789.8 , 925.0 , 1580.0 , 53.0 , 100 , 3510 , 541 , 83 , 20 , 0 , 0.9870 ,
2012-04-01 11:58:47 , 789.8 , 925.0 , 1580.0 , 54.0 , 100 , 3540 , 541 , 99 , 26 , 0 , 0.9870 ,
2012-04-01 11:58:48 , 789.8 , 925.0 , 1580.0 , 54.0 , 100 , 3540 , 505 , 99 , 25 , 0 , 0.9870 ,
2012-04-01 11:58:49 , 789.8 , 925.0 , 1580.0 , 55.0 , 100 , 3540 , 505 , 99 , 25 , 0 , 0.9870 ,
2012-04-01 11:58:50 , 789.8 , 925.0 , 1580.0 , 55.0 , 100 , 3540 , 503 , 99 , 26 , 0 , 0.9870 ,
2012-04-01 11:58:51 , 789.8 , 925.0 , 1580.0 , 55.0 , 100 , 3510 , 503 , 99 , 25 , 0 , 0.9870 ,
2012-04-01 11:58:52 , 789.8 , 925.0 , 1580.0 , 55.0 , 100 , 3540 , 512 , 99 , 25 , 0 , 0.9870 ,
2012-04-01 11:58:53 , 789.8 , 925.0 , 1580.0 , 55.0 , 100 , 3540 , 512 , 99 , 25 , 0 , 0.9870 ,
2012-04-01 11:58:54 , 789.8 , 925.0 , 1580.0 , 55.0 , 100 , 3510 , 512 , 99 , 24 , 0 , 0.9870 ,
2012-04-01 11:58:55 , 789.8 , 925.0 , 1580.0 , 56.0 , 100 , 3540 , 512 , 99 , 25 , 0 , 0.9870 ,
2012-04-01 11:58:56 , 789.8 , 925.0 , 1580.0 , 56.0 , 100 , 3510 , 512 , 99 , 26 , 0 , 0.9870 ,
2012-04-01 11:58:57 , 789.8 , 925.0 , 1580.0 , 55.0 , 100 , 3540 , 514 , 90 , 26 , 0 , 0.9870 ,
2012-04-01 11:58:58 , 789.8 , 925.0 , 1580.0 , 56.0 , 100 , 3540 , 519 , 91 , 26 , 0 , 0.9870 ,
2012-04-01 11:58:59 , 789.8 , 925.0 , 1580.0 , 55.0 , 100 , 3510 , 543 , 97 , 25 , 0 , 0.9870 ,
2012-04-01 11:59:00 , 789.8 , 925.0 , 1580.0 , 55.0 , 100 , 3540 , 556 , 99 , 28 , 0 , 0.9870 ,
2012-04-01 11:59:01 , 789.8 , 925.0 , 1580.0 , 56.0 , 100 , 3540 , 556 , 79 , 23 , 0 , 0.9870 ,
2012-04-01 11:59:02 , 789.8 , 925.0 , 1580.0 , 56.0 , 100 , 3510 , 557 , 97 , 25 , 0 , 0.9870 ,
2012-04-01 11:59:03 , 789.8 , 925.0 , 1580.0 , 56.0 , 100 , 3540 , 557 , 99 , 26 , 0 , 0.9870 ,
2012-04-01 11:59:04 , 789.8 , 925.0 , 1580.0 , 57.0 , 100 , 3510 , 557 , 96 , 27 , 0 , 0.9870 ,
2012-04-01 11:59:05 , 789.8 , 925.0 , 1580.0 , 57.0 , 100 , 3540 , 557 , 99 , 25 , 0 , 0.9870 ,
2012-04-01 11:59:06 , 789.8 , 925.0 , 1580.0 , 57.0 , 100 , 3510 , 548 , 99 , 25 , 0 , 0.9870 ,
2012-04-01 11:59:07 , 789.8 , 925.0 , 1580.0 , 57.0 , 100 , 3540 , 543 , 99 , 27 , 0 , 0.9870 ,
2012-04-01 11:59:09 , 789.8 , 925.0 , 1580.0 , 57.0 , 100 , 3510 , 510 , 90 , 28 , 0 , 0.9870 ,
2012-04-01 11:59:10 , 789.8 , 925.0 , 1580.0 , 57.0 , 100 , 3540 , 505 , 99 , 27 , 0 , 0.9870 ,
2012-04-01 11:59:11 , 789.8 , 925.0 , 1580.0 , 57.0 , 100 , 3540 , 508 , 81 , 20 , 0 , 0.9870 ,
2012-04-01 11:59:12 , 789.8 , 925.0 , 1580.0 , 57.0 , 100 , 3510 , 537 , 98 , 25 , 0 , 0.9870 ,
2012-04-01 11:59:13 , 789.8 , 925.0 , 1580.0 , 57.0 , 100 , 3540 , 542 , 88 , 25 , 0 , 0.9870 ,
2012-04-01 11:59:14 , 789.8 , 925.0 , 1580.0 , 57.0 , 100 , 3540 , 541 , 88 , 22 , 0 , 0.9870 ,
2012-04-01 11:59:15 , 789.8 , 925.0 , 1580.0 , 57.0 , 100 , 3510 , 541 , 93 , 23 , 0 , 0.9870 ,
2012-04-01 11:59:16 , 789.8 , 925.0 , 1580.0 , 57.0 , 100 , 3540 , 549 , 80 , 20 , 0 , 0.9870 ,
2012-04-01 11:59:17 , 789.8 , 925.0 , 1580.0 , 58.0 , 100 , 3510 , 549 , 99 , 26 , 0 , 0.9870 ,
2012-04-01 11:59:18 , 789.8 , 925.0 , 1580.0 , 57.0 , 100 , 3540 , 549 , 82 , 21 , 0 , 0.9870 ,
2012-04-01 11:59:19 , 789.8 , 925.0 , 1580.0 , 58.0 , 100 , 3510 , 551 , 99 , 26 , 0 , 0.9870 ,
2012-04-01 11:59:20 , 789.8 , 925.0 , 1580.0 , 58.0 , 100 , 3540 , 551 , 99 , 25 , 0 , 0.9870 ,
2012-04-01 11:59:21 , 789.8 , 925.0 , 1580.0 , 58.0 , 100 , 3510 , 551 , 97 , 24 , 0 , 0.9870 ,
2012-04-01 11:59:22 , 789.8 , 925.0 , 1580.0 , 58.0 , 100 , 3540 , 551 , 99 , 25 , 0 , 0.9870 ,
2012-04-01 11:59:23 , 789.8 , 925.0 , 1580.0 , 58.0 , 100 , 3510 , 551 , 99 , 25 , 0 , 0.9870 ,
2012-04-01 11:59:24 , 789.8 , 925.0 , 1580.0 , 58.0 , 100 , 3510 , 542 , 99 , 24 , 0 , 0.9870 ,
2012-04-01 11:59:25 , 789.8 , 925.0 , 1580.0 , 58.0 , 100 , 3540 , 552 , 95 , 25 , 0 , 0.9870 ,
2012-04-01 11:59:26 , 789.8 , 925.0 , 1580.0 , 58.0 , 100 , 3510 , 552 , 99 , 29 , 0 , 0.9870 ,
2012-04-01 11:59:27 , 789.8 , 925.0 , 1580.0 , 58.0 , 100 , 3510 , 552 , 99 , 30 , 0 , 0.9870 ,
2012-04-01 11:59:28 , 789.8 , 925.0 , 1580.0 , 59.0 , 100 , 3540 , 553 , 99 , 28 , 0 , 0.9870 ,
2012-04-01 11:59:29 , 789.8 , 925.0 , 1580.0 , 58.0 , 100 , 3510 , 554 , 99 , 31 , 0 , 0.9870 ,
2012-04-01 11:59:30 , 789.8 , 925.0 , 1580.0 , 58.0 , 100 , 3510 , 553 , 63 , 22 , 0 , 0.9870 ,
2012-04-01 11:59:31 , 789.8 , 925.0 , 1580.0 , 58.0 , 100 , 3540 , 554 , 84 , 29 , 0 , 0.9870 ,
2012-04-01 11:59:32 , 789.8 , 925.0 , 1580.0 , 58.0 , 100 , 3540 , 553 , 99 , 29 , 0 , 0.9870 ,
2012-04-01 11:59:33 , 789.8 , 925.0 , 1580.0 , 59.0 , 100 , 3510 , 553 , 99 , 26 , 0 , 0.9870 ,
2012-04-01 11:59:34 , 789.8 , 925.0 , 1580.0 , 59.0 , 100 , 3510 , 554 , 99 , 26 , 0 , 0.9870 ,
2012-04-01 11:59:35 , 789.8 , 925.0 , 1580.0 , 59.0 , 100 , 3540 , 554 , 99 , 26 , 0 , 0.9870 ,
2012-04-01 11:59:36 , 789.8 , 925.0 , 1580.0 , 59.0 , 100 , 3510 , 553 , 96 , 24 , 0 , 0.9870 ,
2012-04-01 11:59:37 , 789.8 , 925.0 , 1580.0 , 59.0 , 100 , 3510 , 543 , 99 , 24 , 0 , 0.9870 ,
2012-04-01 11:59:38 , 789.8 , 925.0 , 1580.0 , 59.0 , 100 , 3510 , 521 , 99 , 26 , 0 , 0.9870 ,
2012-04-01 11:59:39 , 789.8 , 925.0 , 1580.0 , 59.0 , 100 , 3540 , 508 , 99 , 26 , 0 , 0.9870 ,
2012-04-01 11:59:40 , 789.8 , 925.0 , 1580.0 , 59.0 , 100 , 3510 , 508 , 99 , 27 , 0 , 0.9870 ,
2012-04-01 11:59:41 , 789.8 , 925.0 , 1580.0 , 59.0 , 100 , 3510 , 509 , 99 , 27 , 0 , 0.9870 ,
2012-04-01 11:59:42 , 789.8 , 925.0 , 1580.0 , 59.0 , 100 , 3510 , 509 , 99 , 25 , 0 , 0.9870 ,
2012-04-01 11:59:43 , 789.8 , 925.0 , 1580.0 , 59.0 , 100 , 3510 , 516 , 83 , 20 , 0 , 0.9870 ,
2012-04-01 11:59:44 , 789.8 , 925.0 , 1580.0 , 59.0 , 100 , 3540 , 516 , 84 , 21 , 0 , 0.9870 ,
2012-04-01 11:59:45 , 789.8 , 925.0 , 1580.0 , 60.0 , 100 , 3510 , 516 , 82 , 20 , 0 , 0.9870 ,
2012-04-01 11:59:46 , 789.8 , 925.0 , 1580.0 , 59.0 , 100 , 3510 , 516 , 99 , 25 , 0 , 0.9870 ,
2012-04-01 11:59:47 , 789.8 , 925.0 , 1580.0 , 60.0 , 100 , 3510 , 515 , 99 , 26 , 0 , 0.9870 ,
2012-04-01 11:59:48 , 789.8 , 925.0 , 1580.0 , 60.0 , 100 , 3510 , 515 , 99 , 26 , 0 , 0.9870 ,
2012-04-01 11:59:49 , 789.8 , 925.0 , 1580.0 , 60.0 , 100 , 3510 , 515 , 99 , 25 , 0 , 0.9870 ,
2012-04-01 11:59:50 , 789.8 , 925.0 , 1580.0 , 59.0 , 100 , 3540 , 515 , 81 , 20 , 0 , 0.9870 ,
2012-04-01 11:59:51 , 789.8 , 925.0 , 1580.0 , 60.0 , 100 , 3510 , 501 , 95 , 23 , 0 , 0.9870 ,
2012-04-01 11:59:52 , 789.8 , 925.0 , 1580.0 , 60.0 , 100 , 3510 , 501 , 99 , 24 , 0 , 0.9870 ,
2012-04-01 11:59:53 , 789.8 , 925.0 , 1580.0 , 60.0 , 100 , 3510 , 501 , 99 , 24 , 0 , 0.9870 ,
2012-04-01 11:59:54 , 789.8 , 925.0 , 1580.0 , 60.0 , 100 , 3540 , 506 , 98 , 24 , 0 , 0.9870 ,
2012-04-01 11:59:55 , 789.8 , 925.0 , 1580.0 , 60.0 , 100 , 3510 , 508 , 99 , 25 , 0 , 0.9870 ,
2012-04-01 11:59:56 , 789.8 , 925.0 , 1580.0 , 60.0 , 100 , 3480 , 508 , 99 , 25 , 0 , 0.9870 ,
2012-04-01 11:59:57 , 789.8 , 925.0 , 1580.0 , 60.0 , 100 , 3510 , 508 , 99 , 25 , 0 , 0.9870 ,
2012-04-01 11:59:58 , 789.8 , 925.0 , 1580.0 , 60.0 , 100 , 3510 , 508 , 99 , 26 , 0 , 0.9870 ,
2012-04-01 11:59:59 , 789.8 , 925.0 , 1580.0 , 60.0 , 100 , 3510 , 508 , 99 , 26 , 0 , 0.9870 ,
2012-04-01 12:00:00 , 789.8 , 925.0 , 1580.0 , 60.0 , 100 , 3510 , 508 , 99 , 25 , 0 , 0.9870 ,
2012-04-01 12:00:01 , 789.8 , 925.0 , 1580.0 , 60.0 , 100 , 3510 , 522 , 95 , 24 , 0 , 0.9870 ,
2012-04-01 12:00:02 , 789.8 , 925.0 , 1580.0 , 60.0 , 100 , 3510 , 523 , 99 , 25 , 0 , 0.9870 ,
2012-04-01 12:00:03 , 789.8 , 925.0 , 1580.0 , 60.0 , 100 , 3510 , 523 , 99 , 25 , 0 , 0.9870 ,
2012-04-01 12:00:04 , 789.8 , 925.0 , 1580.0 , 60.0 , 100 , 3510 , 523 , 99 , 25 , 0 , 0.9870 ,
2012-04-01 12:00:05 , 789.8 , 925.0 , 1580.0 , 60.0 , 100 , 3510 , 523 , 99 , 27 , 0 , 0.9870 ,
2012-04-01 12:00:06 , 789.8 , 925.0 , 1580.0 , 60.0 , 100 , 3510 , 525 , 99 , 24 , 0 , 0.9870 ,
2012-04-01 12:00:07 , 789.8 , 925.0 , 1580.0 , 60.0 , 100 , 3510 , 525 , 99 , 25 , 0 , 0.9870 ,
2012-04-01 12:00:08 , 789.8 , 925.0 , 1580.0 , 60.0 , 100 , 3510 , 525 , 97 , 23 , 0 , 0.9870 ,
2012-04-01 12:00:09 , 789.8 , 925.0 , 1580.0 , 60.0 , 100 , 3540 , 515 , 84 , 20 , 0 , 0.9870 ,
2012-04-01 12:00:10 , 789.8 , 925.0 , 1580.0 , 60.0 , 100 , 3540 , 519 , 89 , 22 , 0 , 0.9870 ,
2012-04-01 12:00:11 , 789.8 , 925.0 , 1580.0 , 56.0 , 100 , 3510 , 522 , 38 , 10 , 0 , 0.9870 ,
2012-04-01 12:00:12 , 789.8 , 925.0 , 1580.0 , 55.0 , 100 , 3600 , 462 , 8 , 1 , 0 , 0.9870 ,
2012-04-01 12:00:13 , 789.8 , 925.0 , 1580.0 , 54.0 , 100 , 3570 , 462 , 6 , 1 , 0 , 0.9870 ,
2012-04-01 12:00:15 , 789.8 , 925.0 , 1580.0 , 54.0 , 100 , 3600 , 462 , 3 , 1 , 0 , 0.9870 ,
2012-04-01 12:00:16 , 789.8 , 925.0 , 1580.0 , 56.0 , 100 , 3600 , 577 , 40 , 9 , 0 , 0.9870 ,
2012-04-01 12:00:17 , 789.8 , 925.0 , 1580.0 , 55.0 , 100 , 3540 , 574 , 81 , 20 , 0 , 0.9870 ,
2012-04-01 12:00:18 , 789.8 , 925.0 , 1580.0 , 53.0 , 100 , 3600 , 515 , 6 , 1 , 0 , 0.9870 ,
2012-04-01 12:00:19 , 789.8 , 925.0 , 1580.0 , 53.0 , 100 , 3600 , 458 , 8 , 1 , 0 , 0.9870 ,